Time;durP1;ratioP1;P1;durP2;ratioP2;P2;SDS_P1;SDS_P2;PMS_P1;PMS_P2;Temp;Humidity;BMP_temperature;BMP_pressure;BME280_temperature;BME280_humidity;BME280_pressure;Samples;Min_cycle;Max_cycle;Signal;HPM_P1;HPM_P2
2023/08/02 00:01:45;;;;;;;2.67;2.00;;;;;;;23.80;69.37;100547.91;10335416;28;98033;-79
2023/08/02 00:06:49;;;;;;;3.65;1.95;;;;;;;23.81;69.30;100538.00;10336339;28;96729;-80
2023/08/02 00:11:52;;;;;;;3.10;1.87;;;;;;;23.74;69.36;100535.00;10336199;28;96798;-80
2023/08/02 00:16:57;;;;;;;3.77;1.97;;;;;;;23.66;69.49;100532.16;10336037;28;97977;-79
2023/08/02 00:22:00;;;;;;;3.72;1.60;;;;;;;23.31;70.18;100539.75;10336403;28;97876;-79
2023/08/02 00:27:04;;;;;;;2.00;1.10;;;;;;;23.34;69.55;100534.13;10335184;28;96700;-79
2023/08/02 00:32:09;;;;;;;1.58;0.93;;;;;;;23.24;69.49;100535.91;10335985;28;96685;-79
2023/08/02 00:37:13;;;;;;;1.75;1.05;;;;;;;23.10;69.79;100533.56;10334687;28;97269;-79
2023/08/02 00:42:16;;;;;;;1.17;0.80;;;;;;;23.19;69.33;100530.09;10335160;28;96625;-79
2023/08/02 00:47:21;;;;;;;1.58;1.08;;;;;;;23.11;69.21;100529.94;10323456;28;96758;-79
2023/08/02 00:52:25;;;;;;;3.38;1.13;;;;;;;22.98;69.51;100519.38;10331392;28;97537;-79
2023/08/02 00:57:28;;;;;;;1.40;1.20;;;;;;;23.06;69.27;100518.75;10334989;28;96717;-80
2023/08/02 01:02:33;;;;;;;2.70;1.50;;;;;;;23.11;69.09;100511.13;10335071;28;96717;-80
2023/08/02 01:07:46;;;;;;;2.70;1.65;;;;;;;23.05;69.11;100511.66;10334586;28;96618;-80
2023/08/02 01:12:53;;;;;;;1.90;1.38;;;;;;;23.03;69.09;100503.72;10335450;28;97983;-80
2023/08/02 01:17:59;;;;;;;1.75;1.25;;;;;;;22.79;69.52;100496.94;10323069;22;97334;-79
2023/08/02 01:23:04;;;;;;;3.92;1.30;;;;;;;22.73;69.66;100498.31;10302183;28;96987;-80
2023/08/02 01:28:15;;;;;;;2.05;1.20;;;;;;;22.85;69.23;100494.63;10333306;28;96769;-80
2023/08/02 01:33:19;;;;;;;2.50;1.30;;;;;;;22.76;69.34;100487.31;10334239;28;96663;-79
2023/08/02 01:38:23;;;;;;;2.53;1.30;;;;;;;22.59;69.50;100482.56;10340662;28;97196;-80
2023/08/02 01:43:27;;;;;;;2.63;1.30;;;;;;;22.52;69.48;100471.47;10340274;28;96699;-80
2023/08/02 01:48:30;;;;;;;1.87;1.20;;;;;;;22.53;69.63;100475.00;10319606;28;96904;-80
2023/08/02 01:53:35;;;;;;;2.40;1.50;;;;;;;22.31;70.09;100470.63;10299719;28;96648;-80
2023/08/02 01:58:38;;;;;;;1.98;1.20;;;;;;;22.29;69.97;100469.06;10299562;28;96769;-80
2023/08/02 02:03:41;;;;;;;2.60;1.60;;;;;;;22.31;70.00;100470.63;10300107;28;97225;-80
2023/08/02 02:08:46;;;;;;;2.35;1.52;;;;;;;22.31;70.25;100465.28;10299039;28;97118;-80
2023/08/02 02:13:49;;;;;;;2.20;1.52;;;;;;;22.31;69.62;100462.59;10299499;28;97855;-80
2023/08/02 02:18:52;;;;;;;2.67;1.60;;;;;;;22.30;69.73;100460.88;10297055;28;96858;-80
2023/08/02 02:23:57;;;;;;;2.10;1.50;;;;;;;22.14;70.52;100452.41;10298392;28;98606;-80
2023/08/02 02:29:00;;;;;;;3.28;1.65;;;;;;;22.09;70.63;100451.94;10298649;28;97545;-80
2023/08/02 02:34:04;;;;;;;2.00;1.33;;;;;;;22.23;70.02;100456.19;10298903;28;96717;-80
2023/08/02 02:39:08;;;;;;;3.45;1.70;;;;;;;22.26;69.88;100454.06;10298120;28;96622;-80
2023/08/02 02:44:12;;;;;;;2.67;1.63;;;;;;;22.27;69.96;100452.25;10297765;28;96958;-80
2023/08/02 02:49:15;;;;;;;2.38;1.38;;;;;;;22.26;69.77;100454.06;10297353;28;96776;-80
2023/08/02 02:54:19;;;;;;;1.80;1.45;;;;;;;22.31;69.73;100454.53;10298047;28;96706;-80
2023/08/02 02:59:23;;;;;;;2.50;1.55;;;;;;;22.32;69.42;100444.66;10297509;28;96668;-80
2023/08/02 03:04:26;;;;;;;3.28;1.83;;;;;;;22.32;69.49;100441.97;10297824;28;96728;-79
2023/08/02 03:09:31;;;;;;;2.88;1.50;;;;;;;22.37;69.26;100442.44;10296363;28;97982;-80
2023/08/02 03:14:34;;;;;;;2.90;1.38;;;;;;;22.31;69.75;100443.81;10296977;28;96832;-79
2023/08/02 03:19:37;;;;;;;2.65;1.55;;;;;;;22.31;69.85;100437.59;10296253;28;96697;-79
2023/08/02 03:24:42;;;;;;;2.80;1.58;;;;;;;22.26;69.97;100434.47;10296955;28;97877;-80
2023/08/02 03:29:45;;;;;;;2.88;1.67;;;;;;;22.36;69.68;100441.59;10296444;28;97103;-79
2023/08/02 03:34:48;;;;;;;2.30;1.65;;;;;;;22.26;70.28;100456.75;10296590;28;96936;-80
2023/08/02 03:39:53;;;;;;;2.70;1.37;;;;;;;22.40;69.98;100445.69;10296700;28;96842;-80
2023/08/02 03:44:56;;;;;;;3.05;1.80;;;;;;;22.44;70.19;100443.59;10296940;28;96708;-80
2023/08/02 03:49:59;;;;;;;2.72;1.40;;;;;;;22.46;70.44;100441.66;10296042;28;96639;-80
2023/08/02 03:55:05;;;;;;;3.22;1.67;;;;;;;22.38;70.47;100446.81;10296761;28;96869;-80
2023/08/02 04:00:09;;;;;;;3.42;2.08;;;;;;;22.41;70.64;100434.00;10334845;28;96768;-80
2023/08/02 04:05:13;;;;;;;5.35;2.13;;;;;;;22.49;70.54;100439.56;10336566;28;96691;-80
2023/08/02 04:10:18;;;;;;;3.78;1.98;;;;;;;22.57;70.57;100426.31;10336915;28;96718;-80
2023/08/02 04:15:23;;;;;;;3.78;2.20;;;;;;;22.61;70.46;100419.72;10335019;28;97197;-80
2023/08/02 04:20:27;;;;;;;3.50;1.85;;;;;;;22.63;70.48;100424.13;10310437;28;96632;-80
2023/08/02 04:25:33;;;;;;;2.47;1.50;;;;;;;22.70;70.46;100428.81;10295181;28;97695;-80
2023/08/02 04:30:37;;;;;;;3.35;1.60;;;;;;;22.64;70.70;100421.31;10308081;28;96728;-80
2023/08/02 04:35:40;;;;;;;2.45;1.70;;;;;;;22.58;70.96;100435.22;10336385;28;96705;-80
2023/08/02 04:40:46;;;;;;;2.55;1.70;;;;;;;22.65;70.83;100423.00;10335608;28;96819;-80
2023/08/02 04:45:49;;;;;;;2.78;1.73;;;;;;;22.69;70.68;100431.63;10335163;28;96787;-79
2023/08/02 04:50:53;;;;;;;2.90;1.73;;;;;;;22.59;71.02;100427.03;10293623;28;96822;-80
2023/08/02 04:55:58;;;;;;;2.60;1.77;;;;;;;22.61;70.91;100430.44;10286427;28;96906;-79
2023/08/02 05:01:02;;;;;;;2.67;1.65;;;;;;;22.66;71.24;100439.94;10253552;28;97746;-80
2023/08/02 05:06:05;;;;;;;;;;;;;;;22.53;72.31;100432.97;10306123;28;96967;-79
2023/08/02 05:11:10;;;;;;;3.10;1.73;;;;;;;22.60;71.52;100433.28;10338125;28;96663;-80
2023/08/02 05:16:14;;;;;;;4.78;2.22;;;;;;;22.63;71.54;100426.81;10341594;28;96917;-79
2023/08/02 05:21:18;;;;;;;2.50;1.85;;;;;;;22.72;71.11;100423.28;10310589;28;96900;-80
2023/08/02 05:26:24;;;;;;;2.90;1.60;;;;;;;22.81;70.78;100430.59;10301807;28;96809;-80
2023/08/02 05:31:27;;;;;;;3.78;1.98;;;;;;;22.77;71.13;100421.06;10301142;28;96872;-80
2023/08/02 05:36:32;;;;;;;2.67;1.83;;;;;;;22.76;71.29;100422.91;10300605;28;97320;-80
2023/08/02 05:41:40;;;;;;;4.65;1.92;;;;;;;22.75;71.11;100425.75;10299919;28;97503;-80
2023/08/02 05:46:44;;;;;;;3.22;1.95;;;;;;;22.68;71.23;100411.16;10299635;28;96919;-80
2023/08/02 05:51:48;;;;;;;2.78;1.63;;;;;;;22.70;71.12;100418.06;10299805;28;96781;-80
2023/08/02 05:56:54;;;;;;;3.28;2.00;;;;;;;22.73;71.20;100404.41;10300256;28;97556;-80
2023/08/02 06:01:57;;;;;;;3.00;1.83;;;;;;;22.78;71.16;100412.94;10299585;28;96690;-79
2023/08/02 06:07:00;;;;;;;2.95;2.03;;;;;;;22.82;70.99;100417.03;10299330;28;96986;-80
2023/08/02 06:12:05;;;;;;;2.60;1.80;;;;;;;22.83;71.02;100412.53;10299689;28;97039;-79
2023/08/02 06:17:09;;;;;;;3.95;1.85;;;;;;;22.80;71.29;100420.84;10299335;28;96945;-79
2023/08/02 06:22:12;;;;;;;2.75;1.85;;;;;;;22.76;71.23;100414.88;10297922;28;97708;-80
2023/08/02 06:27:17;;;;;;;3.20;1.80;;;;;;;22.67;71.32;100417.47;10298643;28;97653;-80
2023/08/02 06:32:20;;;;;;;2.97;1.60;;;;;;;22.65;71.63;100412.25;10297871;28;96655;-79
2023/08/02 06:37:26;;;;;;;3.87;2.20;;;;;;;22.70;71.76;100427.97;10298130;28;96818;-80
2023/08/02 06:42:38;;;;;;;2.97;1.77;;;;;;;22.43;72.95;100434.72;10297973;28;96536;-81
2023/08/02 06:47:41;;;;;;;4.38;1.85;;;;;;;22.39;73.44;100441.31;10298115;28;97343;-82
2023/08/02 06:52:53;;;;;;;2.33;1.70;;;;;;;22.24;74.03;100439.97;10297568;28;97375;-82
2023/08/02 06:58:06;;;;;;;3.80;2.25;;;;;;;22.07;74.92;100439.69;10297316;28;97116;-82
2023/08/02 07:03:21;;;;;;;4.25;2.55;;;;;;;22.18;74.78;100445.81;10298152;28;96587;-81
2023/08/02 07:08:35;;;;;;;3.45;2.42;;;;;;;22.15;75.10;100445.22;10298319;28;97837;-82
2023/08/02 07:19:28;;;;;;;6.13;3.47;;;;;;;22.25;75.18;100449.69;10299209;28;96947;-81
2023/08/02 07:25:00;;;;;;;7.25;3.30;;;;;;;22.33;75.16;100446.38;10336923;28;97213;-81
2023/08/02 07:30:29;;;;;;;4.93;2.75;;;;;;;22.47;74.67;100440.69;10337795;28;96919;-82
2023/08/02 07:36:29;;;;;;;;;;;;;;;;;;;;;
2023/08/02 08:00:09;;;;;;;5.40;2.90;;;;;;;23.13;73.35;100429.44;9815186;29;97038;-81
2023/08/02 08:11:22;;;;;;;4.15;3.03;;;;;;;23.44;72.74;100433.78;9820614;29;98315;-81
2023/08/02 08:17:15;;;;;;;6.07;3.53;;;;;;;23.65;72.24;100431.88;9818665;29;97070;-81
2023/08/02 08:22:36;;;;;;;8.45;5.22;;;;;;;23.63;72.05;100419.59;9854443;29;97693;-80
2023/08/02 08:28:05;;;;;;;7.13;4.70;;;;;;;23.76;72.25;100411.25;10005119;28;97071;-80
2023/08/02 08:33:51;;;;;;;8.13;5.13;;;;;;;24.06;71.83;100401.22;10135163;28;98286;-80
2023/08/02 08:39:38;;;;;;;8.63;5.03;;;;;;;24.50;70.50;100403.28;10173328;28;97858;-81
2023/08/02 08:44:54;;;;;;;7.05;4.10;;;;;;;24.72;69.85;100405.63;10260562;28;96700;-81
2023/08/02 08:50:37;;;;;;;6.05;3.20;;;;;;;24.16;71.87;100407.44;10294254;28;96955;-80
2023/08/02 08:56:01;;;;;;;4.85;2.67;;;;;;;23.88;72.41;100402.06;10294351;28;97681;-80
2023/08/02 09:01:26;;;;;;;6.32;2.92;;;;;;;24.31;71.32;100413.22;10295260;28;96798;-81
2023/08/02 09:06:44;;;;;;;5.22;3.25;;;;;;;24.83;69.83;100405.47;10293748;28;97008;-81
2023/08/02 09:12:06;;;;;;;;;;;;;;;;;;;;;
2023/08/02 09:17:43;;;;;;;;;;;;;;;;;;;;;
2023/08/02 09:23:32;;;;;;;;;;;;;;;;;;;;;
2023/08/02 09:29:16;;;;;;;3.53;2.38;;;;;;;25.51;68.78;100408.69;10294061;28;96813;-80
2023/08/02 09:34:44;;;;;;;5.50;2.00;;;;;;;25.74;68.21;100404.59;10293483;28;97790;-81
2023/08/02 09:40:11;;;;;;;2.90;1.90;;;;;;;26.30;66.55;100396.97;10333053;28;96679;-80
2023/08/02 09:45:45;;;;;;;3.58;1.50;;;;;;;26.57;65.11;100394.19;10334661;28;96739;-81
2023/08/02 09:51:03;;;;;;;3.08;1.55;;;;;;;26.29;65.85;100398.00;10328105;28;96651;-81
2023/08/02 09:56:32;;;;;;;3.13;1.77;;;;;;;26.30;64.04;100396.97;10294924;28;96738;-80
2023/08/02 10:07:23;;;;;;;3.88;2.15;;;;;;;27.17;63.52;100396.88;10299352;28;96619;-81
2023/08/02 10:12:30;;;;;;;2.95;1.85;;;;;;;27.15;63.54;100401.63;10298958;28;96789;-80
2023/08/02 10:18:09;;;;;;;3.50;1.65;;;;;;;26.73;62.33;100401.53;10260999;28;97152;-80
2023/08/02 10:23:25;;;;;;;;;;;;;;;;;;;;;
2023/08/02 10:28:42;;;;;;;3.00;1.38;;;;;;;26.92;61.97;100401.31;10318107;28;97574;-80
2023/08/02 10:33:53;;;;;;;2.17;1.23;;;;;;;26.94;61.37;100404.69;10340013;28;97387;-81
2023/08/02 10:39:09;;;;;;;;;;;;;;;;;;;;;
2023/08/02 10:44:18;;;;;;;2.78;1.38;;;;;;;26.32;62.67;100408.47;10336744;28;98864;-80
2023/08/02 10:49:47;;;;;;;2.75;1.55;;;;;;;25.70;65.15;100405.88;10339740;28;97285;-80
2023/08/02 10:55:12;;;;;;;3.88;1.88;;;;;;;25.20;67.19;100399.22;10300065;28;96751;-80
2023/08/02 11:00:23;;;;;;;2.60;1.80;;;;;;;25.13;67.77;100407.06;10298079;28;97345;-80
2023/08/02 11:05:44;;;;;;;3.13;1.58;;;;;;;25.22;68.48;100402.63;10296726;28;97518;-80
2023/08/02 11:10:53;;;;;;;2.85;1.73;;;;;;;25.17;67.79;100402.22;10297498;28;97243;-80
2023/08/02 11:16:06;;;;;;;3.30;1.77;;;;;;;25.51;67.05;100395.22;10297278;28;96718;-80
2023/08/02 11:21:15;;;;;;;3.42;1.63;;;;;;;26.37;64.50;100387.28;10297825;28;96798;-80
2023/08/02 11:26:26;;;;;;;3.00;1.88;;;;;;;26.42;65.21;100384.97;10296885;28;97168;-80
2023/08/02 11:32:05;;;;;;;2.13;1.60;;;;;;;25.82;66.50;100383.94;10297118;28;96903;-80
2023/08/02 11:37:12;;;;;;;3.42;1.30;;;;;;;25.93;65.70;100383.69;10297133;28;96742;-80
2023/08/02 11:42:20;;;;;;;2.42;1.25;;;;;;;26.10;65.52;100375.75;10296942;28;96864;-80
2023/08/02 11:47:41;;;;;;;2.47;1.23;;;;;;;25.67;65.73;100377.38;10296440;28;96790;-80
2023/08/02 11:52:47;;;;;;;2.53;1.10;;;;;;;25.81;66.75;100373.31;10296808;28;96696;-80
2023/08/02 11:57:55;;;;;;;2.22;1.60;;;;;;;25.46;67.58;100373.25;10295007;28;96744;-80
2023/08/02 12:03:13;;;;;;;2.50;1.38;;;;;;;25.54;67.83;100368.81;10295821;28;97867;-80
2023/08/02 12:08:22;;;;;;;2.70;1.40;;;;;;;25.64;67.51;100361.50;10295985;28;96657;-80
2023/08/02 12:13:26;;;;;;;2.20;1.05;;;;;;;26.13;66.47;100362.78;10295692;28;96778;-80
2023/08/02 12:18:33;;;;;;;2.22;1.10;;;;;;;26.27;65.87;100337.09;10294626;28;96756;-80
2023/08/02 12:23:37;;;;;;;1.50;0.85;;;;;;;25.99;66.37;100339.06;10294491;28;96703;-80
2023/08/02 12:28:45;;;;;;;1.67;1.17;;;;;;;25.92;66.48;100333.47;10295885;28;96748;-80
2023/08/02 12:33:55;;;;;;;2.45;0.98;;;;;;;26.09;66.76;100347.09;10295921;28;98367;-80
2023/08/02 12:38:59;;;;;;;0.70;0.65;;;;;;;25.71;68.71;100334.81;10294769;28;96705;-80
2023/08/02 12:44:05;;;;;;;1.35;0.90;;;;;;;25.49;70.71;100330.69;10295242;28;96744;-80
2023/08/02 12:49:11;;;;;;;1.50;1.00;;;;;;;25.52;71.32;100330.38;10293610;28;97010;-80
2023/08/02 12:54:17;;;;;;;2.30;0.90;;;;;;;25.67;71.22;100328.84;10294726;28;96978;-80
2023/08/02 12:59:26;;;;;;;1.50;0.68;;;;;;;25.59;70.95;100322.50;10295199;28;96779;-80
2023/08/02 13:04:35;;;;;;;1.20;0.80;;;;;;;25.77;70.43;100326.94;10294339;28;96729;-80
2023/08/02 13:09:39;;;;;;;1.67;0.77;;;;;;;25.61;71.35;100332.16;10294401;28;96620;-80
2023/08/02 13:14:46;;;;;;;0.65;0.57;;;;;;;25.36;73.93;100340.16;10293884;28;96799;-82
2023/08/02 13:19:57;;;;;;;1.02;0.70;;;;;;;25.30;74.18;100332.66;10294407;28;96667;-82
2023/08/02 13:25:09;;;;;;;0.70;0.52;;;;;;;25.41;74.33;100321.69;10294356;28;97659;-82
2023/08/02 13:30:23;;;;;;;0.65;0.60;;;;;;;25.24;74.48;100325.22;10294403;28;97284;-81
2023/08/02 13:35:32;;;;;;;0.63;0.45;;;;;;;25.52;73.86;100329.56;10301067;28;97142;-81
2023/08/02 13:40:50;;;;;;;0.88;0.40;;;;;;;25.52;74.30;100332.25;10299496;28;96692;-81
2023/08/02 13:51:13;;;;;;;0.32;0.22;;;;;;;24.97;76.10;100317.09;10412100;28;96943;-82
2023/08/02 13:56:26;;;;;;;1.38;0.40;;;;;;;25.05;76.13;100334.25;10413028;27;96738;-81
2023/08/02 14:01:30;;;;;;;1.40;0.70;;;;;;;24.98;76.46;100340.34;10423898;28;96854;-81
2023/08/02 14:06:38;;;;;;;1.10;0.50;;;;;;;25.14;75.60;100337.91;10423923;28;96906;-81
2023/08/02 14:11:50;;;;;;;0.50;0.32;;;;;;;25.16;75.42;100342.13;10383283;28;96719;-81
2023/08/02 14:17:11;;;;;;;;;;;;;;;25.00;76.52;100335.72;10382636;28;96824;-81
2023/08/02 14:22:17;;;;;;;0.88;0.40;;;;;;;25.01;75.98;100346.31;10381880;28;97036;-82
2023/08/02 14:27:36;;;;;;;0.82;0.45;;;;;;;24.79;77.23;100352.06;10410104;27;96833;-82
2023/08/02 14:32:41;;;;;;;0.68;0.30;;;;;;;24.89;77.11;100352.88;10421906;27;96940;-82
2023/08/02 14:37:59;;;;;;;0.63;0.20;;;;;;;24.71;78.06;100355.50;10423766;28;97058;-81
2023/08/02 14:43:10;;;;;;;0.68;0.40;;;;;;;24.66;78.29;100346.16;10420900;27;96836;-80
2023/08/02 14:48:20;;;;;;;0.52;0.32;;;;;;;24.52;78.86;100358.25;10422276;27;96766;-82
2023/08/02 14:53:29;;;;;;;0.38;0.10;;;;;;;24.63;77.91;100352.72;10421814;27;96747;-82
2023/08/02 14:58:46;;;;;;;0.32;0.30;;;;;;;24.97;77.29;100365.56;10415542;27;96723;-81
2023/08/02 15:04:16;;;;;;;0.30;0.30;;;;;;;25.14;76.39;100348.66;10381147;28;97679;-80
2023/08/02 15:15:46;;;;;;;0.35;0.10;;;;;;;25.40;73.90;100365.78;10379295;28;96630;-79
2023/08/02 15:21:04;;;;;;;0.55;0.30;;;;;;;25.38;73.70;100365.09;10380239;28;97990;-80
2023/08/02 15:26:40;;;;;;;0.77;0.25;;;;;;;25.41;73.48;100368.34;10310601;28;97906;-79
2023/08/02 15:32:30;;;;;;;0.20;0.17;;;;;;;25.27;73.02;100370.69;10361706;28;96730;-79
2023/08/02 15:38:34;;;;;;;0.57;0.40;;;;;;;24.59;75.06;100377.34;10378520;28;97212;-82
2023/08/02 15:44:00;;;;;;;1.05;0.50;;;;;;;24.42;76.49;100370.91;10307022;28;97376;-80
2023/08/02 15:55:18;;;;;;;;;;;;;;;;;;;;;
2023/08/02 16:00:56;;;;;;;1.45;0.98;;;;;;;24.32;76.99;100367.38;10366320;28;96902;-81
2023/08/02 16:06:49;;;;;;;;;;;;;;;;;;;;;
2023/08/02 16:12:26;;;;;;;1.13;0.68;;;;;;;24.28;76.40;100368.66;10274889;28;97515;-81
2023/08/02 16:17:59;;;;;;;1.85;0.90;;;;;;;24.30;76.44;100369.38;10377421;28;96972;-81
2023/08/02 16:29:01;;;;;;;1.55;0.90;;;;;;;24.39;76.03;100367.66;10291156;28;96786;-80
2023/08/02 16:34:18;;;;;;;1.13;0.90;;;;;;;24.50;75.61;100370.16;10378175;28;96769;-81
2023/08/02 16:39:36;;;;;;;0.93;0.80;;;;;;;24.60;75.47;100358.34;10377488;28;96886;-80
2023/08/02 16:44:53;;;;;;;1.45;0.85;;;;;;;24.50;75.17;100357.56;10377723;28;97093;-80
2023/08/02 16:50:14;;;;;;;0.80;0.70;;;;;;;24.43;74.47;100353.75;10399769;28;96874;-81
2023/08/02 16:55:31;;;;;;;2.00;0.68;;;;;;;24.50;73.83;100357.56;10418522;27;96676;-80
2023/08/02 17:01:04;;;;;;;2.47;0.90;;;;;;;24.55;73.20;100349.88;10387319;27;96877;-80
2023/08/02 17:06:55;;;;;;;1.20;0.77;;;;;;;24.42;72.21;100351.22;10353102;28;96957;-80
2023/08/02 17:12:07;;;;;;;2.20;1.23;;;;;;;24.31;72.39;100357.59;10376264;27;96885;-80
2023/08/02 17:17:26;;;;;;;4.32;1.80;;;;;;;24.19;72.26;100355.19;10383589;28;96846;-80
2023/08/02 17:22:40;;;;;;;3.95;1.45;;;;;;;24.14;71.58;100357.47;10384114;28;97329;-80
2023/08/02 17:28:21;;;;;;;;;;;;;;;;;;;;;
2023/08/02 17:33:42;;;;;;;4.20;1.38;;;;;;;24.21;69.50;100337.06;10382872;28;97267;-80
2023/08/02 17:39:01;;;;;;;3.42;0.90;;;;;;;24.23;69.91;100338.63;10383101;28;96697;-80
2023/08/02 17:44:38;;;;;;;3.42;1.20;;;;;;;24.11;68.76;100352.38;10382849;28;97143;-79
2023/08/02 17:49:46;;;;;;;3.42;1.02;;;;;;;23.84;67.57;100352.28;10397132;28;97338;-79
2023/08/02 18:00:57;;;;;;;2.13;1.20;;;;;;;23.73;65.08;100374.78;10424109;28;96691;-80
2023/08/02 18:06:21;;;;;;;4.22;1.63;;;;;;;23.73;63.94;100375.59;10414454;27;96627;-79
2023/08/02 18:11:51;;;;;;;3.25;1.50;;;;;;;23.59;65.53;100394.00;10381751;28;97009;-79
2023/08/02 18:17:26;;;;;;;;;;;;;;;;;;;;;
2023/08/02 18:22:36;;;;;;;6.82;1.50;;;;;;;23.61;64.46;100398.22;10382521;28;96747;-80
2023/08/02 18:33:45;;;;;;;5.13;1.48;;;;;;;23.75;63.42;100412.25;10380140;28;96593;-80
2023/08/02 18:39:13;;;;;;;;;;;;;;;;;;;;;
2023/08/02 18:45:07;;;;;;;;;;;;;;;;;;;;;
2023/08/02 18:50:19;;;;;;;3.87;1.37;;;;;;;23.85;63.22;100418.47;10381315;28;96799;-80
2023/08/02 18:55:32;;;;;;;4.83;1.20;;;;;;;23.80;63.48;100413.53;10380827;28;97166;-79
2023/08/02 19:01:01;;;;;;;5.75;1.42;;;;;;;23.61;63.32;100416.19;10381249;28;96787;-80
2023/08/02 19:12:15;;;;;;;4.30;1.30;;;;;;;23.20;62.75;100419.03;10358569;27;97112;-79
2023/08/02 19:17:59;;;;;;;2.90;1.10;;;;;;;23.12;63.37;100421.53;10378811;28;98549;-80
2023/08/02 19:40:31;;;;;;;5.80;1.63;;;;;;;22.73;64.84;100441.97;10379179;28;96801;-80
2023/08/02 19:46:20;;;;;;;3.20;1.83;;;;;;;22.70;64.95;100444.06;10379811;28;96751;-80
2023/08/02 19:57:45;;;;;;;5.03;1.20;;;;;;;22.61;65.04;100451.06;10385758;27;96782;-80
2023/08/02 20:02:58;;;;;;;3.95;1.27;;;;;;;22.51;65.50;100442.97;10419582;28;97082;-80
2023/08/02 20:08:41;;;;;;;6.10;1.85;;;;;;;22.36;65.60;100459.50;10384461;28;97446;-78
2023/08/02 20:14:33;;;;;;;10.43;2.25;;;;;;;22.32;65.56;100461.59;10378378;28;96660;-78
2023/08/02 20:31:35;;;;;;;;;;;;;;;;;;;;;
2023/08/02 20:36:57;;;;;;;3.70;2.08;;;;;;;22.05;65.46;100501.47;10372878;28;98059;-78
2023/08/02 20:42:45;;;;;;;5.47;1.73;;;;;;;22.12;65.40;100499.97;10377494;28;97505;-78
2023/08/02 20:48:11;;;;;;;6.55;1.50;;;;;;;22.10;65.37;100509.09;10396769;28;97744;-78
2023/08/02 20:53:36;;;;;;;6.50;1.67;;;;;;;22.04;65.34;100515.81;10418106;28;96745;-78
2023/08/02 21:04:30;;;;;;;;;;;;;;;;;;;;;
2023/08/02 21:09:56;;;;;;;3.97;1.58;;;;;;;21.92;66.01;100527.50;10376158;28;97259;-78
2023/08/02 21:26:38;;;;;;;7.90;2.42;;;;;;;21.49;66.43;100553.38;10374029;27;97448;-78
2023/08/02 21:32:11;;;;;;;6.03;2.40;;;;;;;21.47;66.65;100558.00;10376475;28;97285;-78
2023/08/02 21:56:49;;;;;;;;;;;;;;;;;;;;;
2023/08/02 22:51:04;;;;;;;;;;;;;;;;;;;;;
